| time (UTC) | temp F | wind direction | speed MPH | gust MPH | rain 1hr in | rain 24hr in | rain mn in | humidity % | barometer mb |
| 20260506211534 | 68 | 352 | 3.0 | 8.0 | 0.00 | 0.16 | 0.16 | 76 | 1007.5 |
| 20260506211016 | 68 | 187 | 3.0 | 11.0 | 0.00 | 0.16 | 0.16 | 77 | 1007.3 |
| 20260506210516 | 68 | 273 | 2.0 | 12.0 | 0.00 | 0.16 | 0.16 | 76 | 1007.4 |
| 20260506210041 | 68 | 275 | 4.0 | 17.0 | 0.00 | 0.16 | 0.16 | 76 | 1007.5 |
| 20260506205518 | 68 | 200 | 5.0 | 17.0 | 0.00 | 0.16 | 0.16 | 76 | 1007.5 |
| 20260506205018 | 68 | 186 | 6.0 | 11.0 | 0.00 | 0.16 | 0.16 | 75 | 1007.6 |
| 20260506204542 | 68 | 277 | 4.0 | 12.0 | 0.00 | 0.16 | 0.16 | 76 | 1007.5 |
| 20260506204018 | 68 | 186 | 3.0 | 12.0 | 0.00 | 0.16 | 0.16 | 77 | 1007.5 |
| 20260506203517 | 68 | 259 | 5.0 | 13.0 | 0.00 | 0.16 | 0.16 | 77 | 1007.4 |
| 20260506203035 | 68 | 257 | 5.0 | 13.0 | 0.00 | 0.16 | 0.16 | 78 | 1007.4 |
| 20260506202519 | 67 | 193 | 4.0 | 11.0 | 0.00 | 0.16 | 0.16 | 78 | 1007.3 |
| 20260506202021 | 67 | 291 | 4.0 | 11.0 | 0.00 | 0.16 | 0.16 | 78 | 1007.4 |
| 20260506201534 | 67 | 253 | 3.0 | 12.0 | 0.00 | 0.16 | 0.16 | 79 | 1007.4 |
| 20260506201018 | 66 | 253 | 4.0 | 12.0 | 0.00 | 0.16 | 0.16 | 79 | 1007.4 |
| 20260506200518 | 66 | 278 | 3.0 | 11.0 | 0.00 | 0.16 | 0.16 | 78 | 1007.5 |
| 20260506200048 | 67 | 286 | 4.0 | 10.0 | 0.00 | 0.16 | 0.16 | 78 | 1007.4 |
| 20260506195518 | 67 | 320 | 4.0 | 10.0 | 0.00 | 0.16 | 0.16 | 78 | 1007.6 |
| 20260506195018 | 67 | 205 | 3.0 | 12.0 | 0.00 | 0.16 | 0.16 | 79 | 1007.5 |
| 20260506194541 | 66 | 346 | 4.0 | 12.0 | 0.00 | 0.16 | 0.16 | 79 | 1007.5 |
| 20260506194019 | 66 | 158 | 3.0 | 10.0 | 0.00 | 0.16 | 0.16 | 80 | 1007.7 |
| 20260506193517 | 66 | 318 | 4.0 | 11.0 | 0.00 | 0.16 | 0.16 | 81 | 1007.6 |
| 20260506193035 | 65 | 232 | 4.0 | 11.0 | 0.00 | 0.16 | 0.16 | 81 | 1007.6 |
| 20260506192519 | 65 | 245 | 4.0 | 11.0 | 0.00 | 0.16 | 0.16 | 81 | 1007.8 |
| 20260506192019 | 65 | 277 | 4.0 | 10.0 | 0.00 | 0.16 | 0.16 | 82 | 1007.8 |
| 20260506191535 | 65 | 281 | 3.0 | 11.0 | 0.00 | 0.16 | 0.16 | 82 | 1007.9 |
| 20260506191020 | 64 | 234 | 3.0 | 14.0 | 0.00 | 0.16 | 0.16 | 82 | 1007.9 |
| 20260506190521 | 64 | 204 | 4.0 | 14.0 | 0.00 | 0.16 | 0.16 | 82 | 1008.0 |
| 20260506190034 | 64 | 238 | 3.0 | 14.0 | 0.00 | 0.16 | 0.16 | 82 | 1007.9 |
| 20260506185519 | 64 | 217 | 3.0 | 14.0 | 0.00 | 0.16 | 0.16 | 82 | 1008.0 |
| 20260506185021 | 64 | 216 | 4.0 | 13.0 | 0.00 | 0.16 | 0.16 | 82 | 1008.0 |
| 20260506184540 | 64 | 196 | 5.0 | 13.0 | 0.00 | 0.16 | 0.16 | 83 | 1008.1 |
| 20260506184022 | 64 | 0 | 2.0 | 12.0 | 0.00 | 0.16 | 0.16 | 83 | 1008.1 |
| 20260506183518 | 64 | 146 | 4.0 | 15.0 | 0.00 | 0.16 | 0.16 | 83 | 1008.1 |
| 20260506183035 | 64 | 244 | 5.0 | 15.0 | 0.00 | 0.16 | 0.16 | 83 | 1008.2 |
| 20260506182517 | 64 | 236 | 5.0 | 13.0 | 0.00 | 0.16 | 0.16 | 84 | 1008.2 |
| 20260506182017 | 63 | 220 | 5.0 | 15.0 | 0.00 | 0.16 | 0.16 | 84 | 1008.1 |
| 20260506181555 | 63 | 259 | 7.0 | 18.0 | 0.00 | 0.16 | 0.16 | 84 | 1008.2 |
| 20260506181018 | 64 | 175 | 7.0 | 18.0 | 0.00 | 0.16 | 0.16 | 84 | 1008.2 |
| 20260506180522 | 64 | 180 | 8.0 | 15.0 | 0.00 | 0.16 | 0.16 | 84 | 1008.4 |
| 20260506180104 | 63 | 165 | 5.0 | 15.0 | 0.00 | 0.16 | 0.16 | 84 | 1008.2 |
| 20260506175518 | 63 | 203 | 6.0 | 16.0 | 0.00 | 0.16 | 0.16 | 84 | 1008.3 |
| 20260506175024 | 63 | 215 | 8.0 | 16.0 | 0.00 | 0.16 | 0.16 | 84 | 1008.2 |
| 20260506174541 | 63 | 227 | 6.0 | 15.0 | 0.00 | 0.16 | 0.16 | 84 | 1008.5 |
| 20260506174018 | 63 | 300 | 6.0 | 17.0 | 0.00 | 0.16 | 0.16 | 84 | 1008.4 |
| 20260506173518 | 63 | 202 | 4.0 | 17.0 | 0.00 | 0.16 | 0.16 | 85 | 1008.5 |
| 20260506173045 | 63 | 208 | 7.0 | 16.0 | 0.00 | 0.16 | 0.16 | 85 | 1008.5 |
| 20260506172519 | 63 | 223 | 5.0 | 13.0 | 0.00 | 0.16 | 0.16 | 85 | 1008.5 |
| 20260506172018 | 63 | 183 | 6.0 | 13.0 | 0.01 | 0.16 | 0.16 | 85 | 1008.6 |
| 20260506171535 | 63 | 198 | 6.0 | 12.0 | 0.01 | 0.16 | 0.16 | 85 | 1008.8 |
| 20260506171019 | 63 | 261 | 5.0 | 11.0 | 0.02 | 0.16 | 0.16 | 85 | 1008.8 |
| 20260506170521 | 63 | 211 | 5.0 | 15.0 | 0.02 | 0.16 | 0.16 | 86 | 1008.8 |
| 20260506170035 | 63 | 217 | 5.0 | 15.0 | 0.02 | 0.16 | 0.16 | 86 | 1008.7 |
| 20260506165519 | 63 | 225 | 9.0 | 15.0 | 0.03 | 0.16 | 0.16 | 86 | 1008.7 |
| 20260506165018 | 63 | 227 | 6.0 | 14.0 | 0.04 | 0.16 | 0.16 | 86 | 1008.8 |
| 20260506164544 | 63 | 232 | 6.0 | 16.0 | 0.05 | 0.16 | 0.16 | 86 | 1008.6 |
| 20260506164018 | 63 | 189 | 5.0 | 17.0 | 0.07 | 0.16 | 0.16 | 86 | 1008.5 |
| 20260506163519 | 63 | 202 | 9.0 | 17.0 | 0.08 | 0.16 | 0.16 | 86 | 1008.8 |
| 20260506163044 | 63 | 173 | 8.0 | 15.0 | 0.08 | 0.16 | 0.16 | 86 | 1008.8 |
| 20260506162519 | 63 | 227 | 8.0 | 14.0 | 0.09 | 0.16 | 0.16 | 85 | 1008.6 |
| 20260506162021 | 63 | 215 | 4.0 | 11.0 | 0.09 | 0.15 | 0.15 | 86 | 1008.7 |
| 20260506161536 | 62 | 223 | 4.0 | 11.0 | 0.10 | 0.15 | 0.15 | 85 | 1009.1 |
| 20260506161018 | 62 | 207 | 6.0 | 11.0 | 0.10 | 0.14 | 0.14 | 85 | 1009.4 |
| 20260506160518 | 62 | 183 | 6.0 | 11.0 | 0.11 | 0.14 | 0.14 | 85 | 1009.6 |
| 20260506160037 | 62 | 172 | 6.0 | 14.0 | 0.12 | 0.14 | 0.14 | 84 | 1009.7 |
| 20260506155517 | 63 | 179 | 4.0 | 14.0 | 0.12 | 0.13 | 0.13 | 84 | 1009.9 |
| 20260506155018 | 63 | 224 | 4.0 | 9.0 | 0.11 | 0.12 | 0.12 | 84 | 1009.9 |
| 20260506154537 | 63 | 204 | 4.0 | 9.0 | 0.10 | 0.10 | 0.10 | 83 | 1010.0 |
| 20260506154021 | 63 | 247 | 3.0 | 9.0 | 0.09 | 0.09 | 0.09 | 83 | 1010.1 |
| 20260506153518 | 63 | 263 | 4.0 | 9.0 | 0.08 | 0.08 | 0.08 | 82 | 1010.1 |
| 20260506153040 | 63 | 171 | 4.0 | 8.0 | 0.08 | 0.08 | 0.08 | 81 | 1010.0 |
| 20260506152519 | 63 | 200 | 3.0 | 9.0 | 0.06 | 0.06 | 0.06 | 81 | 1009.8 |
| 20260506152018 | 64 | 229 | 4.0 | 9.0 | 0.05 | 0.05 | 0.05 | 80 | 1009.8 |
| 20260506151541 | 64 | 190 | 3.0 | 12.0 | 0.05 | 0.05 | 0.05 | 79 | 1009.8 |
| 20260506151018 | 64 | 194 | 4.0 | 12.0 | 0.04 | 0.04 | 0.04 | 79 | 1009.8 |
| 20260506150518 | 64 | 198 | 4.0 | 10.0 | 0.03 | 0.03 | 0.03 | 78 | 1010.0 |
| 20260506150040 | 65 | 217 | 4.0 | 11.0 | 0.02 | 0.02 | 0.02 | 78 | 1009.8 |
| 20260506145519 | 65 | 207 | 4.0 | 11.0 | 0.01 | 0.01 | 0.01 | 76 | 1009.8 |
| 20260506145016 | 65 | 235 | 5.0 | 12.0 | 0.01 | 0.01 | 0.01 | 76 | 1009.6 |
| 20260506144546 | 65 | 194 | 7.0 | 12.0 | 0.00 | 0.00 | 0.00 | 75 | 1009.6 |
| 20260506144019 | 65 | 210 | 6.0 | 14.0 | 0.00 | 0.00 | 0.00 | 74 | 1009.8 |
| 20260506143518 | 66 | 242 | 6.0 | 14.0 | 0.00 | 0.00 | 0.00 | 73 | 1009.8 |
| 20260506143034 | 66 | 206 | 5.0 | 12.0 | 0.00 | 0.00 | 0.00 | 72 | 1009.9 |
| 20260506142518 | 66 | 224 | 5.0 | 14.0 | 0.00 | 0.00 | 0.00 | 71 | 1009.9 |
| 20260506142017 | 67 | 217 | 4.0 | 17.0 | 0.00 | 0.00 | 0.00 | 70 | 1009.9 |
| 20260506141541 | 67 | 180 | 6.0 | 17.0 | 0.00 | 0.00 | 0.00 | 69 | 1009.9 |
| 20260506141017 | 67 | 234 | 8.0 | 17.0 | 0.00 | 0.00 | 0.00 | 68 | 1009.8 |
| 20260506140520 | 67 | 295 | 5.0 | 13.0 | 0.00 | 0.00 | 0.00 | 68 | 1009.8 |
| 20260506140043 | 67 | 239 | 7.0 | 14.0 | 0.00 | 0.00 | 0.00 | 68 | 1009.6 |
| 20260506135518 | 67 | 194 | 6.0 | 14.0 | 0.00 | 0.00 | 0.00 | 68 | 1009.6 |
| 20260506135023 | 67 | 179 | 7.0 | 16.0 | 0.00 | 0.00 | 0.00 | 68 | 1009.7 |
| 20260506134539 | 67 | 202 | 6.0 | 18.0 | 0.00 | 0.00 | 0.00 | 69 | 1009.6 |
| 20260506134018 | 67 | 163 | 5.0 | 18.0 | 0.00 | 0.00 | 0.00 | 69 | 1009.6 |
| 20260506133518 | 67 | 215 | 4.0 | 17.0 | 0.00 | 0.00 | 0.00 | 69 | 1009.6 |
| 20260506133041 | 67 | 178 | 8.0 | 14.0 | 0.00 | 0.00 | 0.00 | 69 | 1009.9 |
| 20260506132522 | 67 | 216 | 6.0 | 12.0 | 0.00 | 0.00 | 0.00 | 69 | 1009.7 |
| 20260506132018 | 67 | 246 | 5.0 | 14.0 | 0.00 | 0.00 | 0.00 | 69 | 1009.6 |
| 20260506131536 | 67 | 233 | 6.0 | 14.0 | 0.00 | 0.00 | 0.00 | 69 | 1009.7 |
| 20260506131018 | 67 | 214 | 7.0 | 17.0 | 0.00 | 0.00 | 0.00 | 69 | 1009.7 |
| 20260506130518 | 67 | 163 | 7.0 | 17.0 | 0.00 | 0.00 | 0.00 | 69 | 1009.8 |
| 20260506130037 | 67 | 275 | 3.0 | 16.0 | 0.00 | 0.00 | 0.00 | 69 | 1009.9 |
| 20260506125517 | 67 | 282 | 7.0 | 16.0 | 0.00 | 0.00 | 0.00 | 69 | 1010.0 |
| 20260506125017 | 67 | 221 | 7.0 | 15.0 | 0.00 | 0.00 | 0.00 | 70 | 1010.0 |
| 20260506124533 | 67 | 240 | 4.0 | 15.0 | 0.00 | 0.00 | 0.00 | 70 | 1009.7 |
| 20260506124019 | 67 | 291 | 5.0 | 19.0 | 0.00 | 0.00 | 0.00 | 70 | 1009.8 |
| 20260506123522 | 66 | 297 | 7.0 | 19.0 | 0.00 | 0.00 | 0.00 | 71 | 1009.7 |
| 20260506123041 | 66 | 186 | 6.0 | 19.0 | 0.00 | 0.00 | 0.00 | 71 | 1009.8 |
| 20260506122518 | 66 | 194 | 6.0 | 15.0 | 0.00 | 0.00 | 0.00 | 71 | 1009.7 |
| 20260506122021 | 66 | 192 | 6.0 | 14.0 | 0.00 | 0.00 | 0.00 | 72 | 1009.6 |
| 20260506121536 | 66 | 209 | 6.0 | 16.0 | 0.00 | 0.00 | 0.00 | 72 | 1009.6 |
| 20260506121018 | 65 | 281 | 8.0 | 16.0 | 0.00 | 0.00 | 0.00 | 72 | 1009.6 |
| 20260506120518 | 65 | 204 | 8.0 | 14.0 | 0.00 | 0.00 | 0.00 | 73 | 1009.5 |
| 20260506120035 | 65 | 187 | 7.0 | 14.0 | 0.00 | 0.00 | 0.00 | 73 | 1009.5 |
| 20260506115520 | 65 | 222 | 6.0 | 14.0 | 0.00 | 0.00 | 0.00 | 73 | 1009.5 |
| 20260506115017 | 65 | 187 | 5.0 | 13.0 | 0.00 | 0.00 | 0.00 | 73 | 1009.6 |
| 20260506114535 | 65 | 193 | 6.0 | 16.0 | 0.00 | 0.00 | 0.00 | 74 | 1009.4 |
| 20260506114018 | 65 | 146 | 6.0 | 16.0 | 0.00 | 0.00 | 0.00 | 74 | 1009.5 |
| 20260506113517 | 65 | 144 | 8.0 | 21.0 | 0.00 | 0.00 | 0.00 | 74 | 1009.4 |
| 20260506113035 | 65 | 194 | 10.0 | 21.0 | 0.00 | 0.00 | 0.00 | 74 | 1009.4 |
| 20260506112520 | 65 | 177 | 9.0 | 22.0 | 0.00 | 0.00 | 0.00 | 74 | 1009.3 |
| 20260506112020 | 64 | 214 | 8.0 | 22.0 | 0.00 | 0.00 | 0.00 | 74 | 1009.4 |
| 20260506111540 | 64 | 206 | 8.0 | 19.0 | 0.00 | 0.00 | 0.00 | 74 | 1009.4 |
| 20260506111019 | 64 | 198 | 10.0 | 19.0 | 0.00 | 0.00 | 0.00 | 74 | 1009.3 |
| 20260506110518 | 64 | 200 | 9.0 | 19.0 | 0.00 | 0.00 | 0.00 | 74 | 1009.4 |
| 20260506110038 | 64 | 182 | 8.0 | 16.0 | 0.00 | 0.00 | 0.00 | 74 | 1009.3 |
| 20260506105518 | 64 | 233 | 8.0 | 22.0 | 0.00 | 0.00 | 0.00 | 75 | 1009.4 |
| 20260506105021 | 64 | 228 | 9.0 | 22.0 | 0.00 | 0.00 | 0.00 | 75 | 1009.4 |
| 20260506104535 | 64 | 218 | 10.0 | 21.0 | 0.00 | 0.00 | 0.00 | 75 | 1009.3 |
| 20260506104017 | 64 | 202 | 9.0 | 21.0 | 0.00 | 0.00 | 0.00 | 75 | 1009.3 |
| 20260506103518 | 64 | 219 | 8.0 | 19.0 | 0.00 | 0.00 | 0.00 | 75 | 1009.3 |
| 20260506103037 | 64 | 142 | 9.0 | 19.0 | 0.00 | 0.00 | 0.00 | 75 | 1009.4 |
| 20260506102518 | 64 | 219 | 7.0 | 18.0 | 0.00 | 0.00 | 0.00 | 75 | 1009.4 |
| 20260506102018 | 64 | 215 | 8.0 | 15.0 | 0.00 | 0.00 | 0.00 | 75 | 1009.3 |
| 20260506101536 | 64 | 202 | 6.0 | 14.0 | 0.00 | 0.00 | 0.00 | 75 | 1009.4 |
| 20260506101018 | 64 | 207 | 6.0 | 14.0 | 0.00 | 0.00 | 0.00 | 75 | 1009.4 |
| 20260506100522 | 64 | 167 | 6.0 | 16.0 | 0.00 | 0.00 | 0.00 | 75 | 1009.3 |
| 20260506100042 | 64 | 221 | 9.0 | 17.0 | 0.00 | 0.00 | 0.00 | 75 | 1009.4 |
| 20260506095518 | 64 | 212 | 7.0 | 17.0 | 0.00 | 0.00 | 0.00 | 75 | 1009.4 |
| 20260506095019 | 64 | 159 | 9.0 | 16.0 | 0.00 | 0.00 | 0.00 | 75 | 1009.4 |
| 20260506094539 | 65 | 217 | 7.0 | 17.0 | 0.00 | 0.00 | 0.00 | 74 | 1009.3 |
| 20260506094018 | 65 | 188 | 8.0 | 19.0 | 0.00 | 0.00 | 0.00 | 74 | 1009.2 |
| 20260506093518 | 65 | 194 | 10.0 | 19.0 | 0.00 | 0.00 | 0.00 | 74 | 1009.3 |
| 20260506093040 | 65 | 187 | 9.0 | 17.0 | 0.00 | 0.00 | 0.00 | 74 | 1009.2 |
| 20260506092518 | 65 | 208 | 8.0 | 17.0 | 0.00 | 0.00 | 0.00 | 74 | 1009.1 |
| 20260506092018 | 65 | 173 | 7.0 | 15.0 | 0.00 | 0.00 | 0.00 | 73 | 1009.1 |
| 20260506091536 | 65 | 209 | 8.0 | 17.0 | 0.00 | 0.00 | 0.00 | 73 | 1009.1 |
| 20260506091019 | 65 | 153 | 7.0 | 17.0 | 0.00 | 0.00 | 0.00 | 73 | 1009.2 |
| 20260506090517 | 65 | 165 | 9.0 | 19.0 | 0.00 | 0.00 | 0.00 | 73 | 1009.3 |
| 20260506090037 | 66 | 159 | 9.0 | 19.0 | 0.00 | 0.00 | 0.00 | 73 | 1009.2 |
| 20260506085517 | 66 | 164 | 7.0 | 15.0 | 0.00 | 0.00 | 0.00 | 73 | 1009.3 |
| 20260506085018 | 66 | 194 | 8.0 | 16.0 | 0.00 | 0.00 | 0.00 | 73 | 1009.4 |
| 20260506084538 | 66 | 181 | 7.0 | 16.0 | 0.00 | 0.00 | 0.00 | 73 | 1009.3 |
| 20260506084018 | 66 | 226 | 6.0 | 13.0 | 0.00 | 0.00 | 0.00 | 73 | 1009.4 |
| 20260506083518 | 66 | 207 | 7.0 | 12.0 | 0.00 | 0.00 | 0.00 | 73 | 1009.4 |
| 20260506083042 | 66 | 204 | 6.0 | 12.0 | 0.00 | 0.00 | 0.00 | 72 | 1009.4 |
| 20260506082518 | 66 | 182 | 7.0 | 13.0 | 0.00 | 0.00 | 0.00 | 72 | 1009.4 |
| 20260506082018 | 66 | 164 | 6.0 | 14.0 | 0.00 | 0.00 | 0.00 | 71 | 1009.4 |
| 20260506081537 | 66 | 183 | 7.0 | 17.0 | 0.00 | 0.00 | 0.00 | 71 | 1009.5 |
| 20260506081018 | 66 | 198 | 9.0 | 17.0 | 0.00 | 0.00 | 0.00 | 71 | 1009.5 |
| 20260506080518 | 66 | 181 | 7.0 | 16.0 | 0.00 | 0.00 | 0.00 | 71 | 1009.5 |
| 20260506073517 | 67 | 238 | 6.0 | 15.0 | 0.00 | 0.00 | 0.00 | 70 | 1009.7 |
| 20260506073035 | 67 | 209 | 8.0 | 15.0 | 0.00 | 0.00 | 0.00 | 70 | 1009.7 |
| 20260506072519 | 67 | 229 | 5.0 | 15.0 | 0.00 | 0.00 | 0.00 | 70 | 1009.6 |
| 20260506072018 | 67 | 215 | 8.0 | 15.0 | 0.00 | 0.00 | 0.00 | 70 | 1009.7 |
| 20260506071541 | 67 | 174 | 5.0 | 12.0 | 0.00 | 0.00 | 0.00 | 70 | 1009.8 |
| 20260506071018 | 67 | 156 | 6.0 | 12.0 | 0.00 | 0.00 | 0.00 | 70 | 1009.7 |
| 20260506070518 | 67 | 188 | 5.0 | 14.0 | 0.00 | 0.00 | 0.00 | 69 | 1009.7 |
| 20260506062517 | 68 | 197 | 5.0 | 10.0 | 0.00 | 0.00 | 0.00 | 68 | 1010.1 |
| 20260506062018 | 68 | 237 | 5.0 | 11.0 | 0.00 | 0.00 | 0.00 | 67 | 1010.1 |
| 20260506061534 | 68 | 218 | 5.0 | 11.0 | 0.00 | 0.00 | 0.00 | 67 | 1010.1 |
| 20260506061021 | 68 | 198 | 5.0 | 10.0 | 0.00 | 0.00 | 0.00 | 67 | 1010.1 |
| 20260506060518 | 68 | 195 | 5.0 | 10.0 | 0.00 | 0.00 | 0.00 | 67 | 1010.2 |
| 20260506051017 | 68 | 184 | 4.0 | 10.0 | 0.00 | 0.00 | 0.00 | 65 | 1010.6 |
| 20260506050517 | 68 | 192 | 4.0 | 9.0 | 0.00 | 0.00 | 0.00 | 64 | 1010.7 |
| 20260506045018 | 68 | 221 | 4.0 | 12.0 | 0.00 | 0.00 | 0.00 | 64 | 1010.8 |
| 20260506044541 | 68 | 209 | 4.0 | 12.0 | 0.00 | 0.00 | 0.00 | 63 | 1010.8 |
| 20260506044019 | 68 | 194 | 4.0 | 11.0 | 0.00 | 0.00 | 0.00 | 63 | 1010.8 |
| 20260506043519 | 68 | 210 | 4.0 | 12.0 | 0.00 | 0.00 | 0.00 | 63 | 1010.8 |
| 20260506043036 | 68 | 174 | 4.0 | 12.0 | 0.00 | 0.00 | 0.00 | 62 | 1010.8 |
| 20260506042519 | 68 | 160 | 4.0 | 11.0 | 0.00 | 0.00 | 0.00 | 62 | 1010.8 |
| 20260506042019 | 68 | 186 | 5.0 | 11.0 | 0.00 | 0.00 | 0.00 | 62 | 1010.8 |
| 20260506041547 | 68 | 146 | 5.0 | 11.0 | 0.00 | 0.00 | 0.00 | 62 | 1010.8 |
| 20260506041020 | 68 | 246 | 6.0 | 14.0 | 0.00 | 0.00 | 0.00 | 61 | 1010.7 |
| 20260506040520 | 69 | 188 | 6.0 | 15.0 | 0.00 | 0.00 | 0.00 | 61 | 1010.7 |
| 20260506040039 | 69 | 213 | 8.0 | 15.0 | 0.00 | 0.00 | 0.00 | 61 | 1010.7 |
| 20260506035518 | 69 | 212 | 6.0 | 15.0 | 0.00 | 0.00 | 0.00 | 61 | 1010.6 |
| 20260506035018 | 69 | 195 | 7.0 | 15.0 | 0.00 | 0.00 | 0.00 | 60 | 1010.6 |
| 20260506034549 | 69 | 221 | 6.0 | 15.0 | 0.00 | 0.00 | 0.00 | 60 | 1010.6 |
| 20260506034018 | 69 | 209 | 7.0 | 15.0 | 0.00 | 0.00 | 0.00 | 60 | 1010.6 |
| 20260506033518 | 69 | 188 | 6.0 | 14.0 | 0.00 | 0.00 | 0.00 | 60 | 1010.4 |
| 20260506033034 | 69 | 167 | 5.0 | 16.0 | 0.00 | 0.00 | 0.00 | 60 | 1010.3 |
| 20260506032517 | 69 | 148 | 7.0 | 16.0 | 0.00 | 0.00 | 0.00 | 60 | 1010.4 |
| 20260506032018 | 69 | 216 | 6.0 | 14.0 | 0.00 | 0.00 | 0.00 | 59 | 1010.4 |
| 20260506031536 | 69 | 183 | 6.0 | 15.0 | 0.00 | 0.00 | 0.00 | 59 | 1010.5 |
| 20260506031018 | 69 | 180 | 7.0 | 15.0 | 0.00 | 0.00 | 0.00 | 59 | 1010.4 |
| 20260506030517 | 69 | 213 | 5.0 | 15.0 | 0.00 | 0.00 | 0.00 | 59 | 1010.5 |
| 20260506030035 | 69 | 154 | 5.0 | 15.0 | 0.00 | 0.00 | 0.00 | 58 | 1010.6 |
| 20260506025518 | 70 | 223 | 7.0 | 15.0 | 0.00 | 0.00 | 0.00 | 58 | 1010.6 |
| 20260506025018 | 70 | 175 | 5.0 | 12.0 | 0.00 | 0.00 | 0.00 | 57 | 1010.7 |
| 20260506024536 | 70 | 201 | 5.0 | 12.0 | 0.00 | 0.00 | 0.00 | 57 | 1010.7 |
| 20260506024021 | 70 | 169 | 7.0 | 12.0 | 0.00 | 0.00 | 0.00 | 56 | 1010.8 |
| 20260506023518 | 70 | 208 | 6.0 | 16.0 | 0.00 | 0.00 | 0.00 | 56 | 1010.8 |
| 20260506023033 | 71 | 195 | 6.0 | 18.0 | 0.00 | 0.00 | 0.00 | 55 | 1010.7 |
| 20260506022521 | 71 | 181 | 8.0 | 18.0 | 0.00 | 0.00 | 0.00 | 54 | 1010.8 |
| 20260506022019 | 71 | 181 | 6.0 | 14.0 | 0.00 | 0.00 | 0.00 | 53 | 1010.7 |
| 20260506021550 | 72 | 149 | 4.0 | 11.0 | 0.00 | 0.00 | 0.00 | 51 | 1010.7 |
| 20260506021020 | 72 | 146 | 6.0 | 15.0 | 0.00 | 0.00 | 0.00 | 50 | 1010.6 |
| 20260506020518 | 73 | 163 | 6.0 | 15.0 | 0.00 | 0.00 | 0.00 | 49 | 1010.6 |
| 20260506020034 | 73 | 188 | 7.0 | 15.0 | 0.00 | 0.00 | 0.00 | 48 | 1010.5 |
| 20260506015520 | 73 | 215 | 4.0 | 16.0 | 0.00 | 0.00 | 0.00 | 47 | 1010.4 |
| 20260506015018 | 73 | 156 | 5.0 | 16.0 | 0.00 | 0.00 | 0.00 | 46 | 1010.4 |
| 20260506014541 | 74 | 208 | 5.0 | 15.0 | 0.00 | 0.00 | 0.00 | 46 | 1010.3 |
| 20260506014018 | 74 | 193 | 5.0 | 15.0 | 0.00 | 0.00 | 0.00 | 46 | 1010.2 |
| 20260506013522 | 74 | 184 | 6.0 | 16.0 | 0.00 | 0.00 | 0.00 | 45 | 1010.2 |
| 20260506013039 | 74 | 207 | 7.0 | 16.0 | 0.00 | 0.00 | 0.00 | 45 | 1010.2 |
| 20260506012516 | 74 | 196 | 5.0 | 13.0 | 0.00 | 0.00 | 0.00 | 44 | 1010.1 |
| 20260506012019 | 74 | 194 | 5.0 | 11.0 | 0.00 | 0.00 | 0.00 | 44 | 1010.0 |
| 20260506011559 | 75 | 187 | 5.0 | 17.0 | 0.00 | 0.00 | 0.00 | 44 | 1010.0 |
| 20260506011021 | 75 | 142 | 5.0 | 17.0 | 0.00 | 0.00 | 0.00 | 43 | 1010.0 |
| 20260506010518 | 75 | 229 | 7.0 | 20.0 | 0.00 | 0.00 | 0.00 | 43 | 1010.0 |
| 20260506010035 | 75 | 185 | 8.0 | 20.0 | 0.00 | 0.00 | 0.00 | 42 | 1009.9 |
| 20260506005518 | 75 | 228 | 6.0 | 15.0 | 0.00 | 0.00 | 0.00 | 42 | 1009.8 |
| 20260506005020 | 75 | 202 | 7.0 | 15.0 | 0.00 | 0.00 | 0.00 | 42 | 1009.9 |
| 20260506004541 | 76 | 218 | 6.0 | 13.0 | 0.00 | 0.00 | 0.00 | 41 | 1009.9 |
| 20260506004021 | 76 | 137 | 5.0 | 13.0 | 0.00 | 0.00 | 0.00 | 41 | 1009.8 |
| 20260506003518 | 76 | 208 | 6.0 | 14.0 | 0.00 | 0.00 | 0.00 | 40 | 1009.8 |
| 20260506003033 | 76 | 211 | 6.0 | 14.0 | 0.00 | 0.00 | 0.00 | 40 | 1009.7 |
| 20260506002520 | 76 | 157 | 5.0 | 15.0 | 0.00 | 0.00 | 0.00 | 40 | 1009.7 |
| 20260506002017 | 76 | 215 | 7.0 | 15.0 | 0.00 | 0.00 | 0.00 | 40 | 1009.6 |
| 20260506001542 | 76 | 194 | 6.0 | 14.0 | 0.00 | 0.00 | 0.00 | 40 | 1009.5 |
| 20260506001019 | 77 | 223 | 6.0 | 14.0 | 0.00 | 0.00 | 0.00 | 40 | 1009.3 |
| 20260506000521 | 77 | 188 | 7.0 | 14.0 | 0.00 | 0.00 | 0.00 | 40 | 1009.3 |
| 20260506000048 | 77 | 191 | 6.0 | 12.0 | 0.00 | 0.00 | 0.00 | 40 | 1009.3 |
| 20260505235518 | 77 | 215 | 6.0 | 13.0 | 0.00 | 0.00 | 0.00 | 40 | 1009.2 |
| 20260505235018 | 77 | 250 | 5.0 | 18.0 | 0.00 | 0.00 | 0.00 | 40 | 1009.1 |
| 20260505234535 | 77 | 197 | 9.0 | 18.0 | 0.00 | 0.00 | 0.00 | 40 | 1009.1 |
| 20260505234022 | 77 | 180 | 8.0 | 17.0 | 0.00 | 0.00 | 0.00 | 40 | 1009.1 |
| 20260505233519 | 78 | 186 | 6.0 | 14.0 | 0.00 | 0.00 | 0.00 | 40 | 1009.2 |
| 20260505233036 | 78 | 204 | 7.0 | 14.0 | 0.00 | 0.00 | 0.00 | 40 | 1009.1 |
| 20260505232519 | 78 | 167 | 6.0 | 14.0 | 0.00 | 0.00 | 0.00 | 40 | 1009.1 |
| 20260505232017 | 78 | 213 | 6.0 | 14.0 | 0.00 | 0.00 | 0.00 | 39 | 1009.0 |
| 20260505231543 | 78 | 176 | 5.0 | 17.0 | 0.00 | 0.00 | 0.00 | 39 | 1008.9 |
| 20260505231017 | 78 | 190 | 6.0 | 17.0 | 0.00 | 0.00 | 0.00 | 39 | 1008.9 |
| 20260505230518 | 79 | 192 | 7.0 | 16.0 | 0.00 | 0.00 | 0.00 | 39 | 1008.9 |
| 20260505230040 | 79 | 192 | 8.0 | 17.0 | 0.00 | 0.00 | 0.00 | 38 | 1009.0 |
| 20260505225518 | 79 | 186 | 8.0 | 17.0 | 0.00 | 0.00 | 0.00 | 38 | 1008.8 |
| 20260505225018 | 80 | 152 | 6.0 | 13.0 | 0.00 | 0.00 | 0.00 | 37 | 1008.9 |
| 20260505224536 | 80 | 192 | 6.0 | 18.0 | 0.00 | 0.00 | 0.00 | 35 | 1008.9 |
| 20260505224017 | 80 | 190 | 8.0 | 19.0 | 0.00 | 0.00 | 0.00 | 34 | 1008.9 |
| 20260505223517 | 80 | 217 | 6.0 | 23.0 | 0.00 | 0.00 | 0.00 | 33 | 1008.8 |
| 20260505223034 | 80 | 253 | 8.0 | 23.0 | 0.00 | 0.00 | 0.00 | 32 | 1008.9 |
| 20260505222517 | 81 | 235 | 8.0 | 20.0 | 0.00 | 0.00 | 0.00 | 33 | 1008.9 |
| 20260505222020 | 81 | 212 | 8.0 | 19.0 | 0.00 | 0.00 | 0.00 | 33 | 1008.9 |
| 20260505221549 | 81 | 137 | 10.0 | 18.0 | 0.00 | 0.00 | 0.00 | 32 | 1008.9 |
| 20260505221018 | 81 | 207 | 7.0 | 20.0 | 0.00 | 0.00 | 0.00 | 32 | 1008.9 |
| 20260505220519 | 81 | 196 | 5.0 | 25.0 | 0.00 | 0.00 | 0.00 | 32 | 1008.8 |
| 20260505220053 | 81 | 247 | 8.0 | 26.0 | 0.00 | 0.00 | 0.00 | 31 | 1008.9 |
| 20260505215518 | 81 | 215 | 12.0 | 26.0 | 0.00 | 0.00 | 0.00 | 31 | 1008.8 |
| 20260505215018 | 81 | 232 | 9.0 | 19.0 | 0.00 | 0.00 | 0.00 | 30 | 1008.7 |
| 20260505214537 | 82 | 163 | 7.0 | 16.0 | 0.00 | 0.00 | 0.00 | 30 | 1008.8 |
| 20260505214018 | 82 | 327 | 7.0 | 16.0 | 0.00 | 0.00 | 0.00 | 31 | 1008.6 |
| 20260505213518 | 82 | 213 | 5.0 | 16.0 | 0.00 | 0.00 | 0.00 | 31 | 1008.6 |
| 20260505213039 | 82 | 184 | 7.0 | 19.0 | 0.00 | 0.00 | 0.00 | 31 | 1008.7 |
| 20260505212518 | 82 | 255 | 7.0 | 19.0 | 0.00 | 0.00 | 0.00 | 30 | 1008.8 |
| 20260505212018 | 82 | 10 | 8.0 | 19.0 | 0.00 | 0.00 | 0.00 | 30 | 1008.8 |